Data for 07/01/2005

Time Sea-Level Adjusted Pressure Absolute Pressure Temperature Relative Humidity Dew Point   
(mb) (inHg) (mb) (inHg) (C) (F) (%) (C) (F)
00:05 1019 30.09 848 25.04 15.1 59.2 58 7 44.6
00:10 1019 30.09 848 25.04 15.3 59.5 58 7 44.6
00:15 1019 30.09 848 25.04 15.3 59.6 58 7.1 44.8
00:20 1019 30.09 848 25.04 15.3 59.6 58 7.2 44.9
00:25 1019 30.09 848 25.04 15.2 59.3 59 7.2 45
00:30 1019 30.09 848 25.04 15 58.9 59 7.2 45
00:35 1019 30.09 848 25.04 14.7 58.4 61 7.3 45.1
00:40 1019 30.09 848 25.04 14.4 57.8 62 7.3 45.1
00:45 1019 30.09 848 25.04 14.2 57.5 63 7.2 45
00:50 1019 30.09 848 25.04 14.3 57.7 62 7.1 44.8
00:55 1019 30.09 848 25.04 14.4 57.8 61 7 44.7
01:00 1019 30.09 848 25.04 14.3 57.8 61 7 44.6
01:05 1019 30.09 848 25.04 14.5 58 61 7 44.6
01:10 1019 30.09 848 25.04 14.6 58.2 60 7 44.6
01:15 1019 30.09 848 25.04 14.6 58.2 60 6.9 44.4
01:20 1019 30.09 848 25.04 14.6 58.2 60 7 44.6
01:25 1019 30.09 848 25.04 14.5 58 61 7.1 44.7
01:30 1019 30.09 848 25.04 14.2 57.6 64 7.6 45.6
01:35 1019 30.09 848 25.04 13.8 56.9 64 7.3 45.2
01:40 1019 30.09 848 25.04 13.6 56.5 64 7.1 44.7
01:45 1019 30.09 848 25.04 13.9 57 62 6.7 44.1
01:50 1019 30.09 848 25.04 14.2 57.6 62 7 44.7
01:55 1019 30.09 848 25.04 14.2 57.5 63 7.2 45
02:00 1019 30.09 848 25.04 13.9 57 64 7.2 45
02:05 1019 30.09 848 25.04 13.9 57 62 6.9 44.4
02:10 1019 30.09 848 25.04 13.8 56.8 63 7 44.5
02:15 1019 30.09 848 25.04 13.7 56.7 63 6.9 44.5
02:20 1019 30.09 848 25.04 13.7 56.6 63 6.9 44.4
02:25 1019 30.09 848 25.04 13.7 56.6 63 6.8 44.3
02:30 1019 30.09 848 25.04 13.7 56.6 63 6.8 44.3
02:35 1019 30.09 848 25.04 13.9 57 62 6.8 44.2
02:40 1019 30.09 848 25.04 13.8 56.8 63 6.9 44.4
02:45 1019 30.09 848 25.04 13.9 56.9 62 6.7 44
02:50 1019 30.09 848 25.04 13.8 56.9 63 7 44.6
02:55 1019 30.09 848 25.04 13.6 56.4 64 7.1 44.7
03:00 1019 30.09 848 25.04 13.8 56.8 62 6.7 44
03:05 1018 30.06 848 25.04 13.6 56.4 64 7 44.6
03:10 1018 30.06 848 25.04 13.8 56.9 59 5.9 42.6
03:15 1018 30.06 848 25.04 14.7 58.4 58 6.6 44
03:20 1018 30.06 848 25.04 13.9 57.1 63 7 44.5
03:25 1018 30.06 848 25.04 13.4 56.1 65 7 44.7
03:30 1018 30.06 847 25.01 13.1 55.6 64 6.5 43.7
03:35 1018 30.06 847 25.01 13.3 55.9 64 6.6 43.9
03:40 1018 30.06 848 25.04 13.1 55.6 65 6.7 44
03:45 1018 30.06 848 25.04 13.3 55.9 63 6.3 43.4
03:50 1018 30.06 848 25.04 13.5 56.2 62 6.5 43.6
03:55 1018 30.06 848 25.04 13.5 56.3 62 6.5 43.6
04:00 1018 30.06 848 25.04 13.5 56.2 63 6.6 43.8
04:05 1018 30.06 848 25.04 13.4 56.1 63 6.6 43.9
04:10 1018 30.06 848 25.04 13.3 55.9 65 6.8 44.2
04:15 1018 30.06 848 25.04 13.2 55.7 64 6.5 43.7
04:20 1018 30.06 848 25.04 13.4 56.1 62 6.4 43.5
04:25 1018 30.06 848 25.04 13.5 56.4 63 6.7 44
04:30 1018 30.06 848 25.04 13.2 55.8 64 6.5 43.8
04:35 1018 30.06 848 25.04 13.4 56.1 62 6.4 43.5
04:40 1018 30.06 848 25.04 13.5 56.3 62 6.5 43.7
04:45 1018 30.06 847 25.01 13.3 56 64 6.7 44
04:50 1018 30.06 847 25.01 13.1 55.5 65 6.6 44
04:55 1018 30.06 848 25.04 13 55.3 65 6.5 43.7
05:00 1018 30.06 848 25.04 13.1 55.5 65 6.6 43.9
05:05 1018 30.06 848 25.04 13 55.4 65 6.5 43.8
05:10 1018 30.06 848 25.04 13.1 55.6 67 7.1 44.8
05:15 1018 30.06 848 25.04 13.1 55.6 64 6.5 43.6
05:20 1018 30.06 848 25.04 13.1 55.6 66 6.8 44.3
05:25 1018 30.06 848 25.04 13.3 55.9 63 6.4 43.5
05:30 1018 30.06 848 25.04 13.2 55.8 64 6.6 43.8
05:35 1018 30.06 848 25.04 12.9 55.1 66 6.8 44.2
05:40 1018 30.06 848 25.04 12.5 54.6 68 6.8 44.3
05:45 1018 30.06 848 25.04 12.2 54 69 6.8 44.2
05:50 1018 30.06 848 25.04 12.1 53.8 68 6.5 43.7
05:55 1018 30.06 848 25.04 12.2 54 68 6.6 43.9
06:00 1018 30.06 848 25.04 12.3 54.1 68 6.6 43.9
06:05 1018 30.06 848 25.04 12.5 54.5 66 6.4 43.5
06:10 1018 30.06 848 25.04 12.8 55 65 6.5 43.6
06:15 1018 30.06 848 25.04 12.7 54.9 67 6.7 44.1
06:20 1018 30.06 848 25.04 12.5 54.5 67 6.7 44
06:25 1018 30.06 848 25.04 12.6 54.7 67 6.6 43.9
06:30 1018 30.06 848 25.04 12.7 54.8 67 6.7 44
06:35 1018 30.06 848 25.04 12.8 55.1 66 6.7 44.1
06:40 1018 30.06 848 25.04 12.8 55 66 6.7 44.1
06:45 1018 30.06 848 25.04 12.9 55.2 66 6.8 44.3
06:50 1018 30.06 848 25.04 13.2 55.8 64 6.6 43.9
06:55 1018 30.06 848 25.04 13.6 56.5 63 6.8 44.2
07:00 1018 30.06 848 25.04 13.8 56.8 63 7 44.5
07:05 1018 30.06 848 25.04 14 57.1 62 6.8 44.2
07:10 1018 30.06 847 25.01 14.4 57.9 61 7 44.5
07:15 1018 30.06 847 25.01 14.4 57.9 62 7.3 45.2
07:20 1018 30.06 847 25.01 14.6 58.2 62 7.4 45.4
07:25 1018 30.06 847 25.01 14.5 58.1 64 7.9 46.2
07:30 1018 30.06 847 25.01 14.6 58.4 63 7.8 46
07:35 1018 30.06 847 25.01 14.9 58.8 62 7.8 46
07:40 1018 30.06 847 25.01 15 59 61 7.5 45.5
07:45 1018 30.06 847 25.01 15.4 59.6 59 7.5 45.6
07:50 1018 30.06 847 25.01 15.7 60.2 62 8.5 47.2
07:55 1018 30.06 847 25.01 16.1 61 56 7.5 45.5
08:00 1018 30.06 847 25.01 16.7 62 56 8 46.3
08:05 1018 30.06 847 25.01 17 62.6 57 8.6 47.5
08:10 1018 30.06 847 25.01 17.5 63.5 52 7.7 45.8
08:15 1018 30.06 847 25.01 17.6 63.8 53 8 46.4
08:20 1018 30.06 847 25.01 18 64.5 50 7.7 45.8
08:25 1018 30.06 847 25.01 18.4 65.1 50 7.8 46.1
08:30 1018 30.06 847 25.01 19 66.1 48 7.8 46.1
08:35 1018 30.06 847 25.01 19.4 67 49 8.5 47.3
08:40 1018 30.06 847 25.01 19.8 67.6 49 8.8 47.8
08:45 1018 30.06 847 25.01 20 68.1 48 8.9 48
08:50 1018 30.06 847 25.01 20.5 68.9 47 9 48.3
08:55 1018 30.06 847 25.01 20.5 68.8 45 8.4 47.1
09:00 1018 30.06 847 25.01 20.6 69 44 8.1 46.6
09:05 1018 30.06 847 25.01 21.1 69.9 43 8.3 47
09:10 1018 30.06 847 25.01 21.1 70 43 8.3 46.9
09:15 1018 30.06 847 25.01 21.6 70.8 41 7.9 46.2
09:20 1018 30.06 847 25.01 22.5 72.5 39 7.9 46.3
09:25 1018 30.06 847 25.01 22.6 72.7 40 8.4 47.1
09:30 1018 30.06 847 25.01 21.9 71.5 42 8.8 47.8
09:35 1018 30.06 847 25.01 21.8 71.2 41 8.3 46.9
09:40 1018 30.06 847 25.01 22.4 72.3 38 7.7 45.8
09:45 1018 30.06 847 25.01 22.4 72.3 41 8.8 47.8
09:50 1017 30.03 847 25.01 22.5 72.4 41 8.6 47.4
09:55 1017 30.03 847 25.01 22.5 72.6 39 8.1 46.5
10:00 1017 30.03 847 25.01 22.6 72.7 40 8.7 47.6
10:05 1017 30.03 847 25.01 22.8 73 40 8.6 47.4
10:10 1017 30.03 846 24.98 22.8 73 40 8.6 47.4
10:15 1017 30.03 846 24.98 23.5 74.2 38 8.5 47.3
10:20 1017 30.03 846 24.98 23.9 75 35 7.8 46.1
10:25 1017 30.03 846 24.98 23.9 75.1 35 7.9 46.1
10:30 1017 30.03 846 24.98 24.5 76.1 34 7.7 45.8
10:35 1017 30.03 846 24.98 25.4 77.8 32 8 46.4
10:40 1017 30.03 846 24.98 24.7 76.4 34 7.8 46.1
10:45 1017 30.03 846 24.98 24.7 76.5 33 7.8 46
10:50 1017 30.03 846 24.98 25.4 77.7 31 7.2 45
10:55 1017 30.03 846 24.98 25.3 77.6 32 7.6 45.6
11:00 1017 30.03 846 24.98 25.6 78.1 30 7 44.7
11:05 1017 30.03 846 24.98 25.5 77.8 33 8.2 46.7
11:10 1017 30.03 846 24.98 25.3 77.5 33 8 46.4
11:15 1017 30.03 846 24.98 25.3 77.5 33 7.9 46.2
11:20 1017 30.03 846 24.98 25.2 77.3 35 8.9 47.9
11:25 1017 30.03 846 24.98 25.2 77.4 33 7.9 46.3
11:30 1017 30.03 846 24.98 25.3 77.5 34 8.6 47.4
11:35 1017 30.03 846 24.98 25 76.9 35 8.6 47.4
11:40 1017 30.03 846 24.98 24.9 76.8 33 7.9 46.2
11:45 1017 30.03 846 24.98 25.5 77.9 33 8.4 47.2
11:50 1017 30.03 846 24.98 26.3 79.3 31 8.2 46.7
11:55 1017 30.03 846 24.98 26.4 79.4 29 7.1 44.8
12:00 1016 30 846 24.98 26 78.9 32 8.2 46.7
12:05 1016 30 846 24.98 26.5 79.8 29 7.3 45.1
12:10 1016 30 846 24.98 26.4 79.6 29 7.5 45.4
12:15 1016 30 846 24.98 27.1 80.7 28 7.4 45.3
12:20 1016 30 845 24.95 27.5 81.5 28 7.7 45.8
12:25 1016 30 845 24.95 27.7 81.8 27 7.5 45.6
12:30 1016 30 845 24.95 27.9 82.2 28 8.1 46.5
12:35 1016 30 845 24.95 27.6 81.7 27 7.3 45.1
12:40 1016 30 845 24.95 27.1 80.8 28 7.2 45
12:45 1016 30 845 24.95 26.7 80.1 28 7.1 44.7
12:50 1016 30 845 24.95 26.5 79.7 28 6.8 44.2
12:55 1016 30 845 24.95 27 80.7 24 5.2 41.3
13:00 1016 30 845 24.95 26.8 80.3 25 5.7 42.2
13:05 1016 30 845 24.95 26.7 80.1 26 6.2 43.1
13:10 1016 30 845 24.95 26.4 79.5 29 7.2 44.9
13:15 1016 30 845 24.95 26.7 80.1 27 6.7 44
13:20 1015 29.97 845 24.95 26.9 80.3 28 7.1 44.7
13:25 1015 29.97 845 24.95 27.4 81.4 23 5 41
13:30 1015 29.97 845 24.95 28 82.4 19 2.3 36.2
13:35 1015 29.97 844 24.92 27.9 82.2 17 0.9 33.6
13:40 1015 29.97 844 24.92 27.8 82.1 21 3.7 38.7
13:45 1015 29.97 844 24.92 28.2 82.8 20 3.4 38.1
13:50 1015 29.97 844 24.92 28.3 82.9 19 3.1 37.6
13:55 1015 29.97 844 24.92 28.1 82.7 21 4.3 39.7
14:00 1015 29.97 844 24.92 27.9 82.1 20 3.1 37.5
14:05 1015 29.97 844 24.92 28.1 82.5 21 3.7 38.7
14:10 1015 29.97 844 24.92 28 82.4 22 4.5 40.1
14:15 1015 29.97 844 24.92 28.2 82.8 21 4 39.3
14:20 1014 29.94 844 24.92 29 84.1 18 2.3 36.1
14:25 1014 29.94 844 24.92 29 84.1 20 3.8 38.8
14:30 1014 29.94 844 24.92 29.2 84.5 19 3.8 38.8
14:35 1014 29.94 844 24.92 28.2 82.7 21 4.2 39.5
14:40 1014 29.94 844 24.92 27.6 81.6 21 3.5 38.3
14:45 1014 29.94 844 24.92 26.4 79.6 22 3.5 38.2
14:50 1015 29.97 844 24.92 25.5 78 24 4 39.1
14:55 1015 29.97 844 24.92 25.2 77.4 25 4.3 39.7
15:00 1014 29.94 844 24.92 25.6 78 26 4.8 40.7
15:05 1014 29.94 844 24.92 25.7 78.3 27 5.8 42.5
15:10 1014 29.94 843 24.89 26.2 79.1 26 5.7 42.2
15:15 1014 29.94 843 24.89 25.8 78.4 27 5.9 42.6
15:20 1014 29.94 843 24.89 26 78.8 29 6.8 44.2
15:25 1014 29.94 843 24.89 26 78.8 28 6.2 43.2
15:30 1014 29.94 843 24.89 26.4 79.5 27 5.9 42.6
15:35 1014 29.94 843 24.89 27.2 80.9 24 5.2 41.4
15:40 1014 29.94 843 24.89 27.1 80.8 26 6.2 43.2
15:45 1014 29.94 843 24.89 26.4 79.6 24 4.3 39.8
15:50 1014 29.94 843 24.89 26.3 79.3 25 4.8 40.7
15:55 1014 29.94 843 24.89 26.6 79.8 23 3.8 38.8
16:00 1014 29.94 843 24.89 26.6 79.9 24 4.8 40.6
16:05 1014 29.94 843 24.89 26.6 79.9 25 5.2 41.4
16:10 1014 29.94 843 24.89 26.6 79.9 24 4.8 40.6
16:15 1014 29.94 843 24.89 26.2 79.2 26 5.6 42.2
16:20 1014 29.94 843 24.89 26.7 80 26 5.9 42.6
16:25 1014 29.94 843 24.89 26.9 80.4 26 6 42.9
16:30 1014 29.94 843 24.89 26.6 79.9 26 6 42.9
16:35 1014 29.94 843 24.89 26.2 79.2 26 5.5 41.8
16:40 1014 29.94 843 24.89 26.2 79.2 27 6 42.7
16:45 1014 29.94 843 24.89 26.1 78.9 26 5.4 41.8
16:50 1013 29.91 843 24.89 26.8 80.2 24 5 41
16:55 1014 29.94 843 24.89 26.4 79.5 28 6.7 44.1
17:00 1014 29.94 843 24.89 25.3 77.6 31 7.4 45.3
17:05 1014 29.94 843 24.89 24.7 76.5 29 5.7 42.2
17:10 1014 29.94 843 24.89 25.1 77.1 29 5.9 42.6
17:15 1014 29.94 843 24.89 25.5 77.9 29 6.6 43.8
17:20 1014 29.94 843 24.89 25.5 77.9 29 6.3 43.4
17:25 1014 29.94 843 24.89 25.3 77.5 28 5.7 42.3
17:30 1013 29.91 843 24.89 25.5 77.8 26 4.9 40.9
17:35 1013 29.91 843 24.89 25.6 78 27 5.4 41.8
17:40 1013 29.91 843 24.89 25.7 78.2 27 5.5 42
17:45 1013 29.91 842 24.86 25.6 78.1 27 5.7 42.3
17:50 1013 29.91 842 24.86 25.6 78 28 6.2 43.1
17:55 1013 29.91 842 24.86 25.7 78.2 28 6.1 43
18:00 1013 29.91 842 24.86 25.6 78.1 27 5.4 41.8
18:05 1013 29.91 842 24.86 25.3 77.5 27 5.3 41.6
18:10 1013 29.91 842 24.86 25.2 77.3 26 4.8 40.6
18:15 1013 29.91 842 24.86 25.5 77.9 26 4.6 40.3
18:20 1013 29.91 842 24.86 25.9 78.5 26 5.3 41.6
18:25 1013 29.91 842 24.86 25.8 78.4 27 5.6 42
18:30 1013 29.91 842 24.86 25.8 78.5 27 5.5 42
18:35 1013 29.91 842 24.86 26.2 79.1 26 5.6 42.1
18:40 1013 29.91 842 24.86 26.2 79.1 27 5.9 42.6
18:45 1013 29.91 842 24.86 25.8 78.4 27 5.7 42.3
18:50 1013 29.91 842 24.86 25.6 78 28 5.8 42.5
18:55 1013 29.91 842 24.86 26 78.8 26 5.1 41.2
19:00 1013 29.91 842 24.86 26.6 79.9 26 5.7 42.3
19:05 1013 29.91 842 24.86 27.2 80.9 26 6.3 43.3
19:10 1013 29.91 842 24.86 27.1 80.7 26 6.1 43
19:15 1013 29.91 842 24.86 26.5 79.6 26 5.8 42.4
19:20 1013 29.91 842 24.86 26 78.9 27 5.9 42.6
19:25 1013 29.91 842 24.86 25.6 78.1 28 6.2 43.1
19:30 1013 29.91 842 24.86 24.9 76.7 31 6.8 44.3
19:35 1013 29.91 842 24.86 24.7 76.4 29 5.6 42.1
19:40 1013 29.91 842 24.86 24.6 76.2 29 5.4 41.8
19:45 1013 29.91 842 24.86 24.4 76 28 4.7 40.5
19:50 1012 29.88 842 24.86 24.6 76.2 27 4.4 39.9
19:55 1013 29.91 842 24.86 24.9 76.9 27 4.9 40.9
20:00 1013 29.91 842 24.86 24.7 76.5 29 5.5 41.9
20:05 1013 29.91 842 24.86 24.5 76.1 29 5.7 42.3
20:10 1013 29.91 842 24.86 24 75.2 31 5.9 42.5
20:15 1013 29.91 842 24.86 23.8 74.8 31 5.7 42.2
20:20 1013 29.91 842 24.86 23.5 74.3 32 6.1 43
20:25 1013 29.91 842 24.86 23.5 74.3 32 6.1 43
20:30 1013 29.91 842 24.86 23.5 74.3 32 6 42.7
20:35 1013 29.91 842 24.86 23.4 74.2 33 6.3 43.3
20:40 1013 29.91 842 24.86 23.3 74 33 6.5 43.6
20:45 1013 29.91 842 24.86 23 73.5 32 5.8 42.5
20:50 1013 29.91 843 24.89 23 73.4 34 6.3 43.4
20:55 1013 29.91 843 24.89 23 73.4 35 7 44.6
21:00 1013 29.91 842 24.86 22.8 73 35 6.6 43.8
21:05 1013 29.91 843 24.89 22.6 72.7 35 6.6 44
21:10 1013 29.91 843 24.89 22.4 72.3 35 6.5 43.7
21:15 1013 29.91 843 24.89 22 71.7 38 7.3 45.1
21:20 1013 29.91 843 24.89 21.6 70.9 38 7 44.5
21:25 1014 29.94 843 24.89 21.4 70.5 39 7.2 44.9
21:30 1014 29.94 843 24.89 21 69.8 41 7.2 45
21:35 1014 29.94 843 24.89 20.7 69.2 41 7.1 44.8
21:40 1014 29.94 843 24.89 20.6 69.1 42 7.3 45.1
21:45 1014 29.94 843 24.89 20.4 68.7 45 8.1 46.7
21:50 1014 29.94 843 24.89 19.9 67.8 48 8.8 47.8
21:55 1014 29.94 843 24.89 19.3 66.8 51 9 48.2
22:00 1014 29.94 843 24.89 19.2 66.5 50 8.5 47.4
22:05 1014 29.94 843 24.89 19.2 66.6 49 8.4 47.1
22:10 1014 29.94 843 24.89 19.2 66.6 50 8.6 47.5
22:15 1014 29.94 843 24.89 19.2 66.6 48 8.2 46.8
22:20 1014 29.94 843 24.89 19.3 66.8 47 8 46.4
22:25 1014 29.94 843 24.89 19.4 67 47 7.9 46.2
22:30 1014 29.94 843 24.89 19.4 66.8 47 8 46.4
22:35 1014 29.94 843 24.89 19.3 66.7 48 8 46.5
22:40 1014 29.94 844 24.92 19.1 66.4 50 8.6 47.5
22:45 1014 29.94 844 24.92 18.7 65.7 53 9.1 48.3
22:50 1014 29.94 844 24.92 18.3 65 54 8.9 48
22:55 1014 29.94 844 24.92 18.1 64.7 55 9.1 48.4
23:00 1015 29.97 844 24.92 18.2 64.8 55 9 48.2
23:05 1015 29.97 844 24.92 18.2 64.7 54 8.9 48.1
23:10 1015 29.97 844 24.92 17.9 64.1 54 8.4 47.2
23:15 1015 29.97 844 24.92 18 64.4 54 8.7 47.6
23:20 1015 29.97 844 24.92 18.2 64.7 53 8.4 47.2
23:25 1015 29.97 844 24.92 17.8 64.1 57 9.4 48.9
23:30 1015 29.97 844 24.92 17.2 62.9 59 9.1 48.4
23:35 1015 29.97 844 24.92 16.5 61.7 61 9.1 48.3
23:40 1015 29.97 844 24.92 16.3 61.4 63 9.2 48.6
23:45 1015 29.97 844 24.92 16.3 61.4 58 8.1 46.6
23:50 1015 29.97 844 24.92 16.7 62 55 7.7 45.8
23:55 1015 29.97 844 24.92 16.8 62.3 57 8.2 46.8
24:00 1015 29.97 844 24.92 16.8 62.2 57 8.3 46.9